createdAt,value
2022-12-19T00:02:01.183Z,16.31
2022-12-19T00:05:03.447Z,16.36
2022-12-19T00:08:17.162Z,16.45
2022-12-19T00:11:22.191Z,16.50
2022-12-19T00:14:24.251Z,16.50
2022-12-19T00:17:26.241Z,16.50
2022-12-19T00:20:28.309Z,16.50
2022-12-19T00:23:32.210Z,16.46
2022-12-19T00:26:39.368Z,16.47
2022-12-19T00:29:41.340Z,16.48
2022-12-19T00:32:43.384Z,16.48
2022-12-19T00:35:45.424Z,16.46
2022-12-19T00:38:47.900Z,16.48
2022-12-19T00:41:49.941Z,16.47
2022-12-19T00:44:51.961Z,16.47
2022-12-19T00:47:54.122Z,16.44
2022-12-19T00:51:03.470Z,16.44
2022-12-19T00:54:07.526Z,16.48
2022-12-19T00:57:10.565Z,16.54
2022-12-19T01:00:13.263Z,16.56
2022-12-19T01:03:15.448Z,16.56
2022-12-19T01:06:17.819Z,16.55
2022-12-19T01:09:21.614Z,16.58
2022-12-19T01:12:42.205Z,16.61
2022-12-19T01:15:45.069Z,16.63
2022-12-19T01:18:47.090Z,16.65
2022-12-19T01:21:49.117Z,16.67
2022-12-19T01:24:51.676Z,16.66
2022-12-19T01:27:55.238Z,16.62
2022-12-19T01:30:57.450Z,16.66
2022-12-19T01:34:00.635Z,16.67
2022-12-19T01:37:03.394Z,16.72
2022-12-19T01:40:06.025Z,16.77
2022-12-19T01:43:13.749Z,16.74
2022-12-19T01:46:16.795Z,16.71
2022-12-19T01:49:35.212Z,16.67
2022-12-19T01:52:37.529Z,16.67
2022-12-19T01:55:40.856Z,16.62
2022-12-19T01:58:46.443Z,16.60
2022-12-19T02:01:51.814Z,16.58
2022-12-19T02:04:54.217Z,16.55
2022-12-19T02:07:56.289Z,16.50
2022-12-19T02:10:58.341Z,16.48
2022-12-19T02:14:00.491Z,16.45
2022-12-19T02:17:17.626Z,16.41
2022-12-19T02:20:57.259Z,16.40
2022-12-19T02:24:23.947Z,16.37
2022-12-19T02:27:59.844Z,16.34
2022-12-19T02:31:27.496Z,16.31
2022-12-19T02:34:44.832Z,16.26
2022-12-19T02:38:10.736Z,16.25
2022-12-19T02:41:42.978Z,16.22
2022-12-19T02:44:51.884Z,16.20
2022-12-19T02:47:54.105Z,16.17
2022-12-19T02:50:56.165Z,16.14
2022-12-19T02:53:58.539Z,16.10
2022-12-19T02:57:33.222Z,16.08
2022-12-19T03:00:45.428Z,16.03
2022-12-19T03:04:17.174Z,16.02
2022-12-19T03:07:19.146Z,15.99
2022-12-19T03:11:05.405Z,15.97
2022-12-19T03:14:11.335Z,15.95
2022-12-19T03:17:13.408Z,15.93
2022-12-19T03:20:41.312Z,15.90
2022-12-19T03:23:44.577Z,15.87
2022-12-19T03:27:02.737Z,15.84
2022-12-19T03:30:11.867Z,15.84
2022-12-19T03:33:16.065Z,15.86
2022-12-19T03:36:22.934Z,15.85
2022-12-19T03:39:26.545Z,15.83
2022-12-19T03:42:48.627Z,15.80
2022-12-19T03:46:17.787Z,15.76
2022-12-19T03:49:20.093Z,15.75
2022-12-19T03:52:34.025Z,15.76
2022-12-19T03:55:52.245Z,15.71
2022-12-19T03:59:00.659Z,15.70
2022-12-19T04:02:04.315Z,15.70
2022-12-19T04:05:16.947Z,15.72
2022-12-19T04:08:19.124Z,15.69
2022-12-19T04:11:21.604Z,15.68
2022-12-19T04:14:35.403Z,15.67
2022-12-19T04:17:58.709Z,15.62
2022-12-19T04:21:17.317Z,15.62
2022-12-19T04:24:25.475Z,15.60
2022-12-19T04:27:28.202Z,15.74
2022-12-19T04:30:31.259Z,15.82
2022-12-19T04:33:39.005Z,15.84
2022-12-19T04:36:41.044Z,15.87
2022-12-19T04:39:43.048Z,15.90
2022-12-19T04:42:45.108Z,15.95
2022-12-19T04:45:47.201Z,16.00
2022-12-19T04:48:51.012Z,16.06
2022-12-19T04:51:53.196Z,16.13
2022-12-19T04:54:55.835Z,16.22
2022-12-19T04:57:58.147Z,16.34
2022-12-19T05:01:04.845Z,16.44
2022-12-19T05:04:06.904Z,16.47
2022-12-19T05:07:09.157Z,16.49
2022-12-19T05:10:11.293Z,16.59
2022-12-19T05:13:13.304Z,16.64
2022-12-19T05:16:16.002Z,16.69
2022-12-19T05:19:18.425Z,16.66
2022-12-19T05:22:20.410Z,16.73
2022-12-19T05:25:22.443Z,16.82
2022-12-19T05:28:24.688Z,16.85
2022-12-19T05:31:26.790Z,16.87
2022-12-19T05:34:28.981Z,16.85
2022-12-19T05:37:31.036Z,16.87
2022-12-19T05:40:33.868Z,16.94
2022-12-19T05:43:36.222Z,17.00
2022-12-19T05:46:38.308Z,17.02
2022-12-19T05:49:40.319Z,17.03
2022-12-19T05:52:42.887Z,17.04
2022-12-19T05:55:45.177Z,17.06
2022-12-19T05:58:47.678Z,17.20
2022-12-19T06:01:49.739Z,17.25
2022-12-19T06:04:52.367Z,17.23
2022-12-19T06:07:54.893Z,17.20
2022-12-19T06:11:00.341Z,17.22
2022-12-19T06:14:02.375Z,17.24
2022-12-19T06:17:04.385Z,17.26
2022-12-19T06:20:07.022Z,17.23
2022-12-19T06:23:09.047Z,17.21
2022-12-19T06:26:18.727Z,17.18
2022-12-19T06:29:21.342Z,17.21
2022-12-19T06:32:23.370Z,17.31
2022-12-19T06:35:25.537Z,17.31
2022-12-19T06:38:28.746Z,17.30
2022-12-19T06:41:49.744Z,17.26
2022-12-19T06:44:54.331Z,17.29
2022-12-19T06:47:57.905Z,17.33
2022-12-19T06:51:01.733Z,17.38
2022-12-19T06:54:04.026Z,17.37
2022-12-19T06:57:06.112Z,17.34
2022-12-19T07:00:09.032Z,17.36
2022-12-19T07:03:14.016Z,17.46
2022-12-19T07:06:16.275Z,17.50
2022-12-19T07:09:18.486Z,17.50
2022-12-19T07:12:20.486Z,17.50
2022-12-19T07:15:22.844Z,17.49
2022-12-19T07:18:24.928Z,17.59
2022-12-19T07:21:26.960Z,17.62
2022-12-19T07:24:29.850Z,17.60
2022-12-19T07:27:35.921Z,17.61
2022-12-19T07:30:38.345Z,17.74
2022-12-19T07:33:43.372Z,17.75
2022-12-19T07:36:45.407Z,17.79
2022-12-19T07:39:48.015Z,17.77
2022-12-19T07:42:50.071Z,17.82
2022-12-19T07:45:55.398Z,17.88
2022-12-19T07:48:57.458Z,17.94
2022-12-19T07:51:59.575Z,17.94
2022-12-19T07:55:01.550Z,17.93
2022-12-19T07:58:03.831Z,18.06
2022-12-19T08:01:06.401Z,18.19
2022-12-19T08:04:09.843Z,18.22
2022-12-19T08:07:12.678Z,18.17
2022-12-19T08:10:15.691Z,18.13
2022-12-19T08:13:17.775Z,18.22
2022-12-19T08:16:20.204Z,18.33
2022-12-19T08:19:27.137Z,18.37
2022-12-19T08:22:31.188Z,18.38
2022-12-19T08:25:33.511Z,18.36
2022-12-19T08:28:37.083Z,18.37
2022-12-19T08:31:39.331Z,18.48
2022-12-19T08:34:41.465Z,18.53
2022-12-19T08:37:43.521Z,18.52
2022-12-19T08:40:54.672Z,18.51
2022-12-19T08:43:56.708Z,18.54
2022-12-19T08:46:58.791Z,18.59
2022-12-19T08:50:01.002Z,18.71
2022-12-19T08:53:03.036Z,18.71
2022-12-19T08:56:08.541Z,18.67
2022-12-19T08:59:10.639Z,18.65
2022-12-19T09:02:16.172Z,18.72
2022-12-19T09:05:58.358Z,18.81
2022-12-19T09:08:41.531Z,18.79
2022-12-19T09:11:47.380Z,18.76
2022-12-19T09:14:50.602Z,18.76
2022-12-19T09:17:52.626Z,18.82
2022-12-19T09:20:55.640Z,18.87
2022-12-19T09:24:06.970Z,18.88
2022-12-19T09:27:09.622Z,18.79
2022-12-19T09:30:12.839Z,18.87
2022-12-19T09:33:15.901Z,18.96
2022-12-19T09:36:22.880Z,18.95
2022-12-19T09:39:24.947Z,18.91
2022-12-19T09:43:04.265Z,18.93
2022-12-19T09:46:27.128Z,18.97
2022-12-19T09:49:44.596Z,18.98
2022-12-19T09:52:55.285Z,19.03
2022-12-19T09:55:59.600Z,19.05
2022-12-19T09:59:10.811Z,19.03
2022-12-19T10:02:41.719Z,19.13
2022-12-19T10:07:16.372Z,19.20
2022-12-19T10:11:54.329Z,19.18
2022-12-19T10:13:35.615Z,19.17
2022-12-19T10:17:22.615Z,19.25
2022-12-19T10:20:26.591Z,19.31
2022-12-19T10:24:05.185Z,19.29
2022-12-19T10:27:22.923Z,19.28
2022-12-19T10:30:26.114Z,19.24
2022-12-19T10:33:38.402Z,19.35
2022-12-19T10:40:30.437Z,19.38
2022-12-19T10:43:50.917Z,19.30
2022-12-19T10:46:53.270Z,19.26
2022-12-19T10:49:55.512Z,19.33
2022-12-19T10:53:11.566Z,19.39
2022-12-19T10:56:36.778Z,19.37
2022-12-19T10:59:39.699Z,19.38
2022-12-19T11:02:47.758Z,19.36
2022-12-19T11:05:58.670Z,19.43
2022-12-19T11:09:29.468Z,19.52
2022-12-19T11:17:19.632Z,19.52
2022-12-19T11:20:27.442Z,19.45
2022-12-19T11:29:16.740Z,19.50
2022-12-19T11:29:39.639Z,19.52
2022-12-19T11:30:48.365Z,19.47
2022-12-19T11:33:19.037Z,19.40
2022-12-19T11:36:43.240Z,19.48
2022-12-19T11:39:50.377Z,19.46
2022-12-19T11:43:41.917Z,19.51
2022-12-19T11:46:58.970Z,19.42
2022-12-19T11:50:11.168Z,19.48
2022-12-19T11:53:30.237Z,19.56
2022-12-19T11:56:34.027Z,19.69
2022-12-19T11:59:38.199Z,19.68
2022-12-19T12:03:01.337Z,19.68
2022-12-19T12:06:11.933Z,19.68
2022-12-19T12:10:41.820Z,19.72
2022-12-19T12:22:09.405Z,19.80
2022-12-19T12:31:01.791Z,19.88
2022-12-19T12:31:22.012Z,19.85
2022-12-19T12:31:43.659Z,19.77
2022-12-19T12:31:45.499Z,19.77
2022-12-19T12:39:05.824Z,19.73
2022-12-19T12:42:15.345Z,19.72
2022-12-19T12:45:19.989Z,19.76
2022-12-19T12:48:27.677Z,19.74
2022-12-19T12:51:33.463Z,19.74
2022-12-19T12:54:43.323Z,19.72
2022-12-19T12:57:45.398Z,19.62
2022-12-19T13:01:11.892Z,19.54
2022-12-19T13:04:14.217Z,19.54
2022-12-19T13:07:27.785Z,19.53
2022-12-19T13:10:32.925Z,19.48
2022-12-19T13:13:54.780Z,19.51
2022-12-19T13:16:57.701Z,19.48
2022-12-19T13:20:05.775Z,19.43
2022-12-19T13:23:21.829Z,19.40
2022-12-19T13:26:45.184Z,19.40
2022-12-19T13:30:03.661Z,19.45
2022-12-19T13:33:07.570Z,19.37
2022-12-19T13:39:48.235Z,19.32
2022-12-19T13:40:26.123Z,19.23
2022-12-19T13:43:48.762Z,19.20
2022-12-19T13:46:51.791Z,19.16
2022-12-19T13:49:54.500Z,19.15
2022-12-19T13:52:56.882Z,19.12
2022-12-19T13:56:18.497Z,19.11
2022-12-19T13:59:23.429Z,19.07
2022-12-19T14:02:30.524Z,19.01
2022-12-19T14:06:18.457Z,18.99
2022-12-19T14:11:24.062Z,18.94
2022-12-19T14:13:52.745Z,18.92
2022-12-19T14:16:19.766Z,18.88
2022-12-19T14:19:27.738Z,18.85
2022-12-19T14:22:29.778Z,18.84
2022-12-19T14:28:18.191Z,19.17
2022-12-19T14:29:45.523Z,19.50
2022-12-19T14:33:43.625Z,19.11
2022-12-19T14:36:21.396Z,18.93
2022-12-19T14:39:32.958Z,18.95
2022-12-19T14:43:57.771Z,18.95
2022-12-19T14:54:04.968Z,18.80
2022-12-19T14:54:05.134Z,18.84
2022-12-19T14:54:28.469Z,18.73
2022-12-19T14:56:59.598Z,18.69
2022-12-19T15:01:08.493Z,18.64
2022-12-19T15:04:50.609Z,18.53
2022-12-19T15:07:23.448Z,18.49
2022-12-19T15:11:02.905Z,18.53
2022-12-19T15:14:56.319Z,18.54
2022-12-19T15:17:22.086Z,18.56
2022-12-19T15:20:24.189Z,18.54
2022-12-19T15:23:26.945Z,18.52
2022-12-19T15:26:52.143Z,18.52
2022-12-19T15:29:54.392Z,18.49
2022-12-19T15:32:56.450Z,18.56
2022-12-19T15:35:58.948Z,18.63
2022-12-19T15:39:01.035Z,18.59
2022-12-19T15:42:03.965Z,18.53
2022-12-19T15:45:07.837Z,18.53
2022-12-19T15:48:15.172Z,18.55
2022-12-19T15:51:17.487Z,18.54
2022-12-19T15:57:45.444Z,18.52
2022-12-19T16:01:02.395Z,18.52
2022-12-19T16:04:09.694Z,18.50
2022-12-19T16:07:17.127Z,18.51
2022-12-19T16:10:19.577Z,18.48
2022-12-19T16:13:24.983Z,18.46
2022-12-19T16:16:27.034Z,18.46
2022-12-19T16:19:31.028Z,18.44
2022-12-19T16:22:33.058Z,18.44
2022-12-19T16:25:47.109Z,18.44
2022-12-19T16:28:49.162Z,18.44
2022-12-19T16:31:51.293Z,18.42
2022-12-19T16:34:54.304Z,18.42
2022-12-19T16:37:56.345Z,18.41
2022-12-19T16:40:58.470Z,18.42
2022-12-19T16:44:01.280Z,18.42
2022-12-19T16:47:03.483Z,18.41
2022-12-19T16:50:22.911Z,18.39
2022-12-19T16:53:24.977Z,18.38
2022-12-19T16:56:34.211Z,18.37
2022-12-19T16:59:38.261Z,18.38
2022-12-19T17:02:49.277Z,18.35
2022-12-19T17:05:51.501Z,18.34
2022-12-19T17:08:53.519Z,18.34
2022-12-19T17:12:00.908Z,18.33
2022-12-19T17:15:07.714Z,18.39
2022-12-19T17:18:29.811Z,18.35
2022-12-19T17:21:31.917Z,18.30
2022-12-19T17:24:33.963Z,18.23
2022-12-19T17:27:36.032Z,18.23
2022-12-19T17:30:39.031Z,18.18
2022-12-19T17:33:41.231Z,18.21
2022-12-19T17:36:43.362Z,18.18
2022-12-19T17:39:45.511Z,18.15
2022-12-19T17:42:47.921Z,18.18
2022-12-19T17:45:51.055Z,18.15
2022-12-19T17:49:02.950Z,18.11
2022-12-19T17:52:10.623Z,18.11
2022-12-19T17:55:22.105Z,18.09
2022-12-19T17:58:24.301Z,18.06
2022-12-19T18:01:26.589Z,18.06
2022-12-19T18:04:30.137Z,18.04
2022-12-19T18:07:32.143Z,18.03
2022-12-19T18:10:34.170Z,18.02
2022-12-19T18:13:36.193Z,17.99
2022-12-19T18:16:38.395Z,17.96
2022-12-19T18:19:40.640Z,17.95
2022-12-19T18:22:42.746Z,17.92
2022-12-19T18:25:45.998Z,17.93
2022-12-19T18:28:48.076Z,17.92
2022-12-19T18:31:51.348Z,17.88
2022-12-19T18:34:53.586Z,17.84
2022-12-19T18:37:58.804Z,17.84
2022-12-19T18:41:01.113Z,17.82
2022-12-19T18:44:03.153Z,17.81
2022-12-19T18:47:05.220Z,17.78
2022-12-19T18:50:16.341Z,17.77
2022-12-19T18:53:25.058Z,17.75
2022-12-19T18:56:28.549Z,17.74
2022-12-19T18:59:30.618Z,17.72
2022-12-19T19:02:33.873Z,17.72
2022-12-19T19:05:38.083Z,17.73
2022-12-19T19:08:40.183Z,17.69
2022-12-19T19:11:42.428Z,17.68
2022-12-19T19:14:44.455Z,17.67
2022-12-19T19:17:49.189Z,17.64
2022-12-19T19:21:00.425Z,17.66
2022-12-19T19:24:08.511Z,17.65
2022-12-19T19:27:10.625Z,17.61
2022-12-19T19:30:13.278Z,17.60
2022-12-19T19:33:29.965Z,17.58
2022-12-19T19:36:36.358Z,17.55
2022-12-19T19:39:38.497Z,17.56
2022-12-19T19:42:40.491Z,17.53
2022-12-19T19:45:43.799Z,17.51
2022-12-19T19:48:47.505Z,17.50
2022-12-19T19:51:49.515Z,17.49
2022-12-19T19:54:51.519Z,17.48
2022-12-19T19:57:54.007Z,17.47
2022-12-19T20:00:59.351Z,17.46
2022-12-19T20:04:02.147Z,17.44
2022-12-19T20:07:04.937Z,17.43
2022-12-19T20:10:08.197Z,17.41
2022-12-19T20:13:11.124Z,17.43
2022-12-19T20:16:16.308Z,17.40
2022-12-19T20:19:18.461Z,17.38
2022-12-19T20:22:20.549Z,17.39
2022-12-19T20:25:22.616Z,17.38
2022-12-19T20:28:24.598Z,17.35
2022-12-19T20:31:27.322Z,17.33
2022-12-19T20:34:29.479Z,17.32
2022-12-19T20:37:32.808Z,17.33
2022-12-19T20:40:34.868Z,17.32
2022-12-19T20:43:38.366Z,17.29
2022-12-19T20:46:40.437Z,17.29
2022-12-19T20:49:42.520Z,17.25
2022-12-19T20:52:44.563Z,17.25
2022-12-19T20:55:57.629Z,17.23
2022-12-19T20:59:00.275Z,17.24
2022-12-19T21:02:02.657Z,17.22
2022-12-19T21:05:05.478Z,17.22
2022-12-19T21:08:07.947Z,17.23
2022-12-19T21:11:10.594Z,17.19
2022-12-19T21:14:12.722Z,17.15
2022-12-19T21:17:14.800Z,17.17
2022-12-19T21:20:19.861Z,17.15
2022-12-19T21:23:23.360Z,17.14
2022-12-19T21:26:26.061Z,17.14
2022-12-19T21:29:28.173Z,17.13
2022-12-19T21:32:30.312Z,17.11
2022-12-19T21:35:34.900Z,17.10
2022-12-19T21:38:37.946Z,17.11
2022-12-19T21:41:39.985Z,17.06
2022-12-19T21:44:42.101Z,17.08
2022-12-19T21:47:44.223Z,17.07
2022-12-19T21:50:46.563Z,17.07
2022-12-19T21:53:48.862Z,17.04
2022-12-19T21:56:51.105Z,17.03
2022-12-19T21:59:53.265Z,17.04
2022-12-19T22:03:12.660Z,17.02
2022-12-19T22:06:28.805Z,17.02
2022-12-19T22:09:30.917Z,16.99
2022-12-19T22:12:32.967Z,17.00
2022-12-19T22:15:36.758Z,16.99
2022-12-19T22:18:39.629Z,16.98
2022-12-19T22:21:41.844Z,16.92
2022-12-19T22:24:43.939Z,16.93
2022-12-19T22:27:45.992Z,16.92
2022-12-19T22:30:48.058Z,16.90
2022-12-19T22:33:52.207Z,16.89
2022-12-19T22:36:54.249Z,16.87
2022-12-19T22:39:59.999Z,16.86
2022-12-19T22:43:02.120Z,16.86
2022-12-19T22:46:18.319Z,16.86
2022-12-19T22:49:20.913Z,16.84
2022-12-19T22:52:23.750Z,16.85
2022-12-19T22:55:25.835Z,16.82
2022-12-19T22:58:30.017Z,16.81
2022-12-19T23:01:36.673Z,16.80
2022-12-19T23:04:38.857Z,16.78
2022-12-19T23:07:40.939Z,16.76
2022-12-19T23:10:43.033Z,16.76
2022-12-19T23:13:46.268Z,16.75
2022-12-19T23:16:48.609Z,16.74
2022-12-19T23:19:50.709Z,16.71
2022-12-19T23:22:52.720Z,16.72
2022-12-19T23:25:54.815Z,16.66
2022-12-19T23:29:01.801Z,16.67
2022-12-19T23:32:04.075Z,16.65
2022-12-19T23:35:06.465Z,16.66
2022-12-19T23:38:08.604Z,16.62
2022-12-19T23:41:13.742Z,16.63
2022-12-19T23:44:15.855Z,16.60
2022-12-19T23:47:17.934Z,16.61
2022-12-19T23:50:19.953Z,16.60
2022-12-19T23:53:22.055Z,16.59
2022-12-19T23:56:29.587Z,16.59
2022-12-19T23:59:31.595Z,16.56
